Ocean Exporter — VRXJ4 — position and weather

sailwx.info

Track history (hours):
 
Tides and Currents Weather Stations Pressure Air Temp Water Temp Dewpoint Dewpoint Depression Visibility Wind Speed Wind Dir Waves Ship Positions

Ocean Exporter

Last reported at 2014-Aug-06 11:23 UTC. Time now 2014-Aug-28 07:24 UTC.
Position S 38°37' E 141°47'.
Warning: this ship's position is 21 days out of date.

Length 169 m; draft 5.7 m.

Type: Cargo ship. MMSI: 477980000.

Date/timePositionNaut miles runAvg speedWind from/ knotsBaromVisibWave heightAir tempDewpointWater temp
2014-Aug-06 11:23S 38°37' E 141°47'6 7.7
2014-Aug-06 10:33S 38°39' E 141°54'8 7.5
2014-Aug-06 09:33S 38°42' E 142°03'7 7.0
2014-Aug-06 08:32S 38°44' E 142°12'7 7.2
2014-Aug-06 07:33S 38°46' E 142°21'7 7.1
2014-Aug-06 06:32S 38°48' E 142°29'  
2014-Aug-02 13:25S 38°49' E 142°37'1011.4
2014-Aug-02 12:33S 38°46' E 142°25'1111.4
2014-Aug-02 11:33S 38°40' E 142°12'1111.1
2014-Aug-02 10:33S 38°34' E 142°01'1111.2
2014-Aug-02 09:33S 38°27' E 141°49'1110.7
2014-Aug-02 08:33S 38°20' E 141°39'1 0.2
2014-Aug-02 00:17S 38°21' E 141°37'0 0.0
2014-Aug-01 23:29S 38°21' E 141°37'0 0.0
2014-Aug-01 22:29S 38°21' E 141°37'0 0.0
2014-Aug-01 21:29S 38°21' E 141°37'0 0.0
2014-Aug-01 20:05S 38°21' E 141°37'0 0.0
2014-Aug-01 16:23S 38°21' E 141°37'0 0.0
2014-Aug-01 14:23S 38°21' E 141°37'0 0.0
2014-Aug-01 13:17S 38°21' E 141°37'0 0.0
2014-Aug-01 12:11S 38°21' E 141°37'0 0.0
2014-Aug-01 11:29S 38°21' E 141°37'0 0.0
2014-Aug-01 03:29S 38°21' E 141°37'0 0.0
2014-Aug-01 02:28S 38°21' E 141°37'0 0.0
2014-Aug-01 01:28S 38°21' E 141°37'0 0.0
2014-Jul-31 18:28S 38°21' E 141°37'0 0.0
2014-Jul-31 17:22S 38°21' E 141°37'0 0.0
2014-Jul-31 16:16S 38°21' E 141°37'0 0.0
2014-Jul-31 15:29S 38°21' E 141°37'0 0.0
2014-Jul-31 14:28S 38°21' E 141°37'0 0.0
2014-Jul-31 08:22S 38°21' E 141°37'0 0.0
2014-Jul-31 07:10S 38°21' E 141°37'0 0.0
2014-Jul-31 06:04S 38°21' E 141°37'0 0.0
2014-Jul-31 05:28S 38°21' E 141°37'0 0.0
2014-Jul-31 04:28S 38°21' E 141°37'0 0.0
2014-Jul-31 03:28S 38°21' E 141°37'0 0.0
2014-Jul-31 02:28S 38°21' E 141°37'0 0.0
2014-Jul-31 01:28S 38°21' E 141°37'0 0.0
2014-Jul-31 00:10S 38°21' E 141°37'0 0.0
2014-Jul-30 23:28S 38°21' E 141°37'0 0.0
2014-Jul-30 22:28S 38°21' E 141°37'0 0.0
2014-Jul-30 21:28S 38°21' E 141°37'0 0.0
2014-Jul-30 20:27S 38°21' E 141°37'0 0.0
2014-Jul-30 19:27S 38°21' E 141°37'0 0.0
2014-Jul-30 18:28S 38°21' E 141°37'0 0.0
2014-Jul-30 17:33S 38°21' E 141°37'0 0.0
2014-Jul-30 16:33S 38°21' E 141°37'0 0.0
2014-Jul-30 15:21S 38°21' E 141°37'0 0.0
2014-Jul-30 14:33S 38°21' E 141°37'0 0.0
2014-Jul-30 13:34S 38°21' E 141°37'0 0.0
2014-Jul-30 12:22S 38°21' E 141°37'0 0.4
2014-Jul-30 11:32S 38°21' E 141°37'3 3.6
2014-Jul-30 10:33S 38°21' E 141°42'6 6.1
2014-Jul-30 09:33S 38°24' E 141°48'8 7.5
2014-Jul-30 08:33S 38°28' E 141°57'7 6.8
2014-Jul-30 07:33S 38°31' E 142°04'7 6.7
2014-Jul-30 06:33S 38°35' E 142°12'7 6.7
2014-Jul-30 05:33S 38°38' E 142°19'7 6.7
2014-Jul-30 04:33S 38°42' E 142°26'7 6.5
2014-Jul-30 03:33S 38°46' E 142°33'  
Track history (hours):
 
Tides and Currents Weather Stations Pressure Air Temp Water Temp Dewpoint Dewpoint Depression Visibility Wind Speed Wind Dir Waves Ship Positions

Ocean Exporter

Last reported at 2014-Aug-06 11:23 UTC. Time now 2014-Aug-28 07:24 UTC.
Position S 38°37' E 141°47'.
Warning: this ship's position is 21 days out of date.

Length 169 m; draft 5.7 m.

Type: Cargo ship. MMSI: 477980000.

Date/timePositionNaut miles runAvg speedWind from/ knotsBaromVisibWave heightAir tempDewpointWater temp
2014-Aug-06 11:23S 38°37' E 141°47'6 7.7
2014-Aug-06 10:33S 38°39' E 141°54'8 7.5
2014-Aug-06 09:33S 38°42' E 142°03'7 7.0
2014-Aug-06 08:32S 38°44' E 142°12'7 7.2
2014-Aug-06 07:33S 38°46' E 142°21'7 7.1
2014-Aug-06 06:32S 38°48' E 142°29'  
2014-Aug-02 13:25S 38°49' E 142°37'1011.4
2014-Aug-02 12:33S 38°46' E 142°25'1111.4
2014-Aug-02 11:33S 38°40' E 142°12'1111.1
2014-Aug-02 10:33S 38°34' E 142°01'1111.2
2014-Aug-02 09:33S 38°27' E 141°49'1110.7
2014-Aug-02 08:33S 38°20' E 141°39'1 0.2
2014-Aug-02 00:17S 38°21' E 141°37'0 0.0
2014-Aug-01 23:29S 38°21' E 141°37'0 0.0
2014-Aug-01 22:29S 38°21' E 141°37'0 0.0
2014-Aug-01 21:29S 38°21' E 141°37'0 0.0
2014-Aug-01 20:05S 38°21' E 141°37'0 0.0
2014-Aug-01 16:23S 38°21' E 141°37'0 0.0
2014-Aug-01 14:23S 38°21' E 141°37'0 0.0
2014-Aug-01 13:17S 38°21' E 141°37'0 0.0
2014-Aug-01 12:11S 38°21' E 141°37'0 0.0
2014-Aug-01 11:29S 38°21' E 141°37'0 0.0
2014-Aug-01 03:29S 38°21' E 141°37'0 0.0
2014-Aug-01 02:28S 38°21' E 141°37'0 0.0
2014-Aug-01 01:28S 38°21' E 141°37'0 0.0
2014-Jul-31 18:28S 38°21' E 141°37'0 0.0
2014-Jul-31 17:22S 38°21' E 141°37'0 0.0
2014-Jul-31 16:16S 38°21' E 141°37'0 0.0
2014-Jul-31 15:29S 38°21' E 141°37'0 0.0
2014-Jul-31 14:28S 38°21' E 141°37'0 0.0
2014-Jul-31 08:22S 38°21' E 141°37'0 0.0
2014-Jul-31 07:10S 38°21' E 141°37'0 0.0
2014-Jul-31 06:04S 38°21' E 141°37'0 0.0
2014-Jul-31 05:28S 38°21' E 141°37'0 0.0
2014-Jul-31 04:28S 38°21' E 141°37'0 0.0
2014-Jul-31 03:28S 38°21' E 141°37'0 0.0
2014-Jul-31 02:28S 38°21' E 141°37'0 0.0
2014-Jul-31 01:28S 38°21' E 141°37'0 0.0
2014-Jul-31 00:10S 38°21' E 141°37'0 0.0
2014-Jul-30 23:28S 38°21' E 141°37'0 0.0
2014-Jul-30 22:28S 38°21' E 141°37'0 0.0
2014-Jul-30 21:28S 38°21' E 141°37'0 0.0
2014-Jul-30 20:27S 38°21' E 141°37'0 0.0
2014-Jul-30 19:27S 38°21' E 141°37'0 0.0
2014-Jul-30 18:28S 38°21' E 141°37'0 0.0
2014-Jul-30 17:33S 38°21' E 141°37'0 0.0
2014-Jul-30 16:33S 38°21' E 141°37'0 0.0
2014-Jul-30 15:21S 38°21' E 141°37'0 0.0
2014-Jul-30 14:33S 38°21' E 141°37'0 0.0
2014-Jul-30 13:34S 38°21' E 141°37'0 0.0
2014-Jul-30 12:22S 38°21' E 141°37'0 0.4
2014-Jul-30 11:32S 38°21' E 141°37'3 3.6
2014-Jul-30 10:33S 38°21' E 141°42'6 6.1
2014-Jul-30 09:33S 38°24' E 141°48'8 7.5
2014-Jul-30 08:33S 38°28' E 141°57'7 6.8
2014-Jul-30 07:33S 38°31' E 142°04'7 6.7
2014-Jul-30 06:33S 38°35' E 142°12'7 6.7
2014-Jul-30 05:33S 38°38' E 142°19'7 6.7
2014-Jul-30 04:33S 38°42' E 142°26'7 6.5
2014-Jul-30 03:33S 38°46' E 142°33'  

Dump ship's entire track history